createdAt,value
2018-05-12T00:00:51.314Z,23.33
2018-05-12T00:03:18.456Z,25.37
2018-05-12T00:05:44.877Z,25.07
2018-05-12T00:08:11.252Z,24.90
2018-05-12T00:10:37.655Z,24.57
2018-05-12T00:13:04.831Z,23.87
2018-05-12T00:15:31.286Z,16.10
2018-05-12T00:17:57.700Z,20.20
2018-05-12T00:20:24.109Z,18.57
2018-05-12T00:22:53.361Z,15.93
2018-05-12T00:25:23.686Z,20.10
2018-05-12T00:27:50.117Z,19.20
2018-05-12T00:30:17.312Z,23.30
2018-05-12T00:32:44.464Z,21.70
2018-05-12T00:35:11.735Z,23.53
2018-05-12T00:37:38.138Z,25.90
2018-05-12T00:40:04.695Z,24.40
2018-05-12T00:42:34.133Z,27.30
2018-05-12T00:45:00.849Z,28.50
2018-05-12T00:47:27.251Z,24.67
2018-05-12T00:49:53.655Z,26.63
2018-05-12T00:52:20.896Z,27.27
2018-05-12T00:54:49.798Z,27.10
2018-05-12T00:57:16.196Z,28.47
2018-05-12T00:59:42.590Z,27.17
2018-05-12T01:02:09.153Z,22.30
2018-05-12T01:04:36.988Z,21.40
2018-05-12T01:07:03.514Z,21.30
2018-05-12T01:09:29.956Z,23.07
2018-05-12T01:11:56.356Z,24.13
2018-05-12T01:14:22.762Z,26.37
2018-05-12T01:16:49.310Z,27.40
2018-05-12T01:19:16.650Z,28.23
2018-05-12T01:21:43.054Z,27.67
2018-05-12T01:24:09.839Z,28.67
2018-05-12T01:26:36.238Z,26.47
2018-05-12T01:29:03.370Z,24.27
2018-05-12T01:31:29.750Z,26.73
2018-05-12T01:33:56.158Z,25.60
2018-05-12T01:36:23.276Z,26.43
2018-05-12T01:38:49.663Z,24.43
2018-05-12T01:41:16.054Z,24.60
2018-05-12T01:43:42.460Z,25.33
2018-05-12T01:46:08.846Z,24.00
2018-05-12T01:48:35.307Z,23.90
2018-05-12T01:51:01.716Z,25.40
2018-05-12T01:53:28.900Z,23.63
2018-05-12T01:55:55.295Z,25.37
2018-05-12T01:58:21.676Z,25.87
2018-05-12T02:00:48.074Z,24.53
2018-05-12T02:03:14.474Z,26.67
2018-05-12T02:05:41.612Z,26.67
2018-05-12T02:08:08.000Z,25.70
2018-05-12T02:10:34.383Z,27.50
2018-05-12T02:13:01.577Z,24.37
2018-05-12T02:15:27.984Z,25.40
2018-05-12T02:17:54.466Z,23.70
2018-05-12T02:20:20.863Z,24.80
2018-05-12T02:22:47.353Z,22.83
2018-05-12T02:25:13.767Z,24.53
2018-05-12T02:27:40.158Z,21.23
2018-05-12T02:30:06.570Z,23.00
2018-05-12T02:32:33.710Z,22.20
2018-05-12T02:35:00.893Z,24.17
2018-05-12T02:37:27.305Z,24.43
2018-05-12T02:39:54.456Z,24.00
2018-05-12T02:42:21.573Z,25.07
2018-05-12T02:44:49.445Z,24.13
2018-05-12T02:47:15.821Z,25.70
2018-05-12T02:49:42.292Z,23.40
2018-05-12T02:52:10.169Z,24.03
2018-05-12T02:54:36.572Z,24.20
2018-05-12T02:57:02.983Z,24.90
2018-05-12T02:59:30.098Z,22.43
2018-05-12T03:01:57.984Z,25.40
2018-05-12T03:04:25.122Z,22.10
2018-05-12T03:06:52.275Z,22.20
2018-05-12T03:09:18.705Z,23.93
2018-05-12T03:11:45.852Z,22.67
2018-05-12T03:14:12.983Z,22.57
2018-05-12T03:16:39.391Z,22.30
2018-05-12T03:19:05.799Z,25.23
2018-05-12T03:21:32.219Z,25.33
2018-05-12T03:23:58.595Z,22.30
2018-05-12T03:26:25.002Z,23.13
2018-05-12T03:28:51.490Z,22.27
2018-05-12T03:31:17.903Z,21.17
2018-05-12T03:33:45.062Z,22.50
2018-05-12T03:36:12.578Z,21.40
2018-05-12T03:38:38.979Z,23.07
2018-05-12T03:41:05.411Z,27.83
2018-05-12T03:43:32.543Z,22.27
2018-05-12T03:46:00.466Z,21.57
2018-05-12T03:48:26.896Z,21.23
2018-05-12T03:50:53.281Z,20.60
2018-05-12T03:53:20.448Z,23.07
2018-05-12T03:55:47.591Z,22.73
2018-05-12T03:58:14.886Z,20.83
2018-05-12T04:00:41.328Z,23.60
2018-05-12T04:03:07.736Z,22.73
2018-05-12T04:05:46.346Z,20.47
2018-05-12T04:08:24.900Z,21.40
2018-05-12T04:11:03.659Z,18.43
2018-05-12T04:13:30.091Z,15.70
2018-05-12T04:15:56.547Z,14.10
2018-05-12T04:18:23.943Z,13.93
2018-05-12T04:20:50.354Z,13.30
2018-05-12T04:23:16.753Z,17.50
2018-05-12T04:25:43.135Z,16.90
2018-05-12T04:28:09.535Z,18.00
2018-05-12T04:30:37.521Z,20.27
2018-05-12T04:33:03.963Z,20.30
2018-05-12T04:35:30.400Z,18.27
2018-05-12T04:37:58.945Z,18.50
2018-05-12T04:40:26.928Z,21.60
2018-05-12T04:42:53.498Z,24.17
2018-05-12T04:45:21.336Z,21.37
2018-05-12T04:47:47.957Z,23.27
2018-05-12T04:50:14.904Z,22.50
2018-05-12T04:52:41.383Z,21.60
2018-05-12T04:55:10.345Z,21.60
2018-05-12T04:57:36.911Z,21.30
2018-05-12T05:00:05.090Z,24.90
2018-05-12T05:02:32.633Z,23.97
2018-05-12T05:04:59.414Z,25.37
2018-05-12T05:07:25.950Z,23.70
2018-05-12T05:09:54.550Z,24.20
2018-05-12T05:12:23.486Z,23.10
2018-05-12T05:14:51.952Z,23.33
2018-05-12T05:17:20.545Z,24.07
2018-05-12T05:19:48.158Z,21.83
2018-05-12T05:22:16.121Z,23.70
2018-05-12T05:24:42.878Z,24.50
2018-05-12T05:27:09.858Z,26.40
2018-05-12T05:29:37.209Z,24.80
2018-05-12T05:32:04.866Z,22.37
2018-05-12T05:34:31.405Z,21.23
2018-05-12T05:36:58.139Z,20.93
2018-05-12T05:39:25.207Z,19.50
2018-05-12T05:41:52.454Z,19.33
2018-05-12T05:44:19.441Z,18.90
2018-05-12T05:46:46.839Z,18.07
2018-05-12T05:49:14.036Z,17.80
2018-05-12T05:51:40.729Z,18.40
2018-05-12T05:54:10.321Z,17.83
2018-05-12T05:56:37.709Z,18.27
2018-05-12T05:59:04.280Z,18.00
2018-05-12T06:01:32.278Z,18.00
2018-05-12T06:04:01.288Z,19.27
2018-05-12T06:06:28.090Z,21.73
2018-05-12T06:21:58.360Z,26.60
2018-05-12T06:24:24.817Z,26.13
2018-05-12T06:26:52.562Z,26.20
2018-05-12T06:29:21.467Z,27.90
2018-05-12T06:31:48.072Z,31.73
2018-05-12T06:34:15.444Z,30.80
2018-05-12T06:36:45.340Z,34.20
2018-05-12T06:39:12.198Z,32.90
2018-05-12T06:41:41.391Z,35.77
2018-05-12T06:44:09.268Z,35.17
2018-05-12T06:46:36.439Z,39.40
2018-05-12T06:49:04.380Z,42.47
2018-05-12T06:51:30.903Z,44.60
2018-05-12T06:53:58.436Z,42.30
2018-05-12T06:56:25.689Z,43.30
2018-05-12T06:58:52.903Z,42.90
2018-05-12T07:01:19.413Z,44.23
2018-05-12T07:03:46.667Z,39.47
2018-05-12T07:06:13.140Z,41.93
2018-05-12T07:08:39.577Z,42.40
2018-05-12T07:11:06.030Z,42.10
2018-05-12T07:13:33.254Z,45.33
2018-05-12T07:15:59.639Z,43.70
2018-05-12T07:18:26.045Z,43.83
2018-05-12T07:20:52.466Z,41.87
2018-05-12T07:23:19.045Z,41.97
2018-05-12T07:25:45.511Z,41.37
2018-05-12T07:28:11.914Z,39.30
2018-05-12T07:30:38.387Z,43.77
2018-05-12T07:33:04.807Z,39.73
2018-05-12T07:35:31.233Z,38.23
2018-05-12T07:37:57.668Z,40.17
2018-05-12T07:40:24.106Z,40.10
2018-05-12T07:42:50.582Z,40.53
2018-05-12T07:45:17.779Z,40.73
2018-05-12T07:47:44.240Z,39.93
2018-05-12T07:50:10.705Z,40.47
2018-05-12T07:52:37.890Z,39.30
2018-05-12T07:55:04.368Z,38.20
2018-05-12T07:57:31.538Z,38.57
2018-05-12T07:59:57.970Z,39.60
2018-05-12T08:02:24.425Z,36.07
2018-05-12T08:04:51.634Z,37.80
2018-05-12T08:07:18.036Z,36.60
2018-05-12T08:09:44.453Z,39.40
2018-05-12T08:12:10.901Z,37.67
2018-05-12T08:14:37.332Z,37.17
2018-05-12T08:17:03.767Z,33.93
2018-05-12T08:19:30.165Z,36.57
2018-05-12T08:21:57.325Z,38.10
2018-05-12T08:24:24.448Z,35.83
2018-05-12T08:26:51.659Z,26.90
2018-05-12T08:29:18.043Z,28.23
2018-05-12T08:31:45.196Z,21.30
2018-05-12T08:34:12.356Z,24.03
2018-05-12T08:36:39.552Z,22.10
2018-05-12T08:39:05.975Z,24.57
2018-05-12T08:41:32.399Z,26.37
2018-05-12T08:43:58.947Z,23.07
2018-05-12T08:46:25.405Z,13.30
2018-05-12T08:48:52.575Z,18.70
2018-05-12T08:51:18.975Z,19.50
2018-05-12T08:53:45.416Z,21.23
2018-05-12T08:56:11.807Z,20.57
2018-05-12T08:58:38.192Z,18.90
2018-05-12T09:01:05.333Z,19.40
2018-05-12T09:03:31.726Z,18.20
2018-05-12T09:05:58.106Z,19.33
2018-05-12T09:08:24.520Z,20.73
2018-05-12T09:10:50.901Z,23.13
2018-05-12T09:13:18.076Z,22.30
2018-05-12T09:15:44.473Z,20.30
2018-05-12T09:18:11.619Z,20.47
2018-05-12T09:20:38.020Z,20.23
2018-05-12T09:23:04.415Z,19.33
2018-05-12T09:25:30.896Z,20.87
2018-05-12T09:27:58.042Z,21.30
2018-05-12T09:30:29.482Z,19.13
2018-05-12T09:32:55.917Z,19.30
2018-05-12T09:35:22.295Z,16.50
2018-05-12T09:37:49.433Z,20.83
2018-05-12T09:40:15.797Z,17.27
2018-05-12T09:42:42.229Z,16.33
2018-05-12T09:45:08.699Z,15.80
2018-05-12T09:47:35.090Z,14.57
2018-05-12T09:50:01.471Z,14.20
2018-05-12T09:52:27.950Z,11.47
2018-05-12T09:54:54.267Z,15.63
2018-05-12T09:57:20.666Z,17.10
2018-05-12T09:59:47.059Z,15.90
2018-05-12T10:02:13.434Z,18.20
2018-05-12T10:04:39.852Z,17.23
2018-05-12T10:07:06.266Z,15.87
2018-05-12T10:09:32.706Z,13.80
2018-05-12T10:11:59.155Z,16.30
2018-05-12T10:14:25.538Z,14.20
2018-05-12T10:16:52.669Z,15.00
2018-05-12T10:19:19.884Z,13.83
2018-05-12T10:21:46.189Z,15.83
2018-05-12T10:24:12.598Z,14.80
2018-05-12T10:26:39.727Z,14.77
2018-05-12T10:29:06.106Z,10.90
2018-05-12T10:31:32.495Z,14.60
2018-05-12T10:33:58.879Z,11.07
2018-05-12T10:36:25.334Z,12.00
2018-05-12T10:38:51.810Z,11.50
2018-05-12T10:41:18.142Z,11.30
2018-05-12T10:43:45.664Z,11.87
2018-05-12T10:46:12.071Z,10.53
2018-05-12T10:48:38.620Z,11.07
2018-05-12T10:51:05.016Z,11.37
2018-05-12T10:53:32.156Z,12.20
2018-05-12T10:55:59.284Z,10.90
2018-05-12T10:58:27.161Z,11.37
2018-05-12T11:00:53.551Z,11.20
2018-05-12T11:03:19.932Z,9.60
2018-05-12T11:05:46.320Z,9.37
2018-05-12T11:08:12.731Z,8.47
2018-05-12T11:10:39.118Z,12.20
2018-05-12T11:13:06.990Z,8.93
2018-05-12T11:15:33.378Z,7.73
2018-05-12T11:17:59.762Z,8.40
2018-05-12T11:20:26.231Z,9.10
2018-05-12T11:22:52.627Z,9.90
2018-05-12T11:25:19.037Z,10.43
2018-05-12T11:27:46.177Z,9.70
2018-05-12T11:30:12.576Z,10.40
2018-05-12T11:32:38.988Z,8.53
2018-05-12T11:35:06.106Z,9.10
2018-05-12T11:37:32.499Z,9.87
2018-05-12T11:39:58.886Z,9.70
2018-05-12T11:42:25.275Z,8.67
2018-05-12T11:44:51.662Z,8.73
2018-05-12T11:47:18.795Z,9.13
2018-05-12T11:49:45.956Z,9.13
2018-05-12T11:52:13.091Z,8.37
2018-05-12T11:54:40.967Z,9.47
2018-05-12T11:57:08.088Z,9.50
2018-05-12T11:59:34.465Z,9.47
2018-05-12T12:02:01.615Z,9.63
2018-05-12T12:04:28.904Z,8.63
2018-05-12T12:06:55.322Z,9.00
2018-05-12T12:09:21.725Z,9.60
2018-05-12T12:11:48.879Z,9.80
2018-05-12T12:14:16.043Z,9.20
2018-05-12T12:16:43.269Z,9.13
2018-05-12T12:19:09.628Z,10.23
2018-05-12T12:21:36.773Z,10.30
2018-05-12T12:24:03.912Z,11.10
2018-05-12T12:26:31.062Z,9.40
2018-05-12T12:28:58.216Z,9.70
2018-05-12T12:31:24.582Z,10.80
2018-05-12T12:33:50.976Z,8.67
2018-05-12T12:36:18.110Z,11.10
2018-05-12T12:38:45.288Z,10.00
2018-05-12T12:41:12.437Z,8.80
2018-05-12T12:43:40.187Z,8.90
2018-05-12T12:46:07.346Z,9.40
2018-05-12T12:48:34.484Z,8.70
2018-05-12T12:51:00.885Z,10.00
2018-05-12T12:53:27.275Z,10.17
2018-05-12T12:55:54.436Z,9.20
2018-05-12T12:58:20.869Z,9.33
2018-05-12T13:00:47.276Z,9.40
2018-05-12T13:03:14.428Z,9.77
2018-05-12T13:05:41.570Z,9.90
2018-05-12T13:08:07.978Z,9.63
2018-05-12T13:10:34.366Z,9.40
2018-05-12T13:13:00.737Z,8.93
2018-05-12T13:15:27.110Z,8.83
2018-05-12T13:17:54.335Z,7.77
2018-05-12T13:20:20.806Z,8.60
2018-05-12T13:22:47.256Z,8.23
2018-05-12T13:25:13.649Z,7.50
2018-05-12T13:27:40.132Z,8.10
2018-05-12T13:30:06.561Z,8.40
2018-05-12T13:32:32.953Z,9.60
2018-05-12T13:34:59.342Z,9.40
2018-05-12T13:37:25.756Z,9.97
2018-05-12T13:39:52.152Z,9.13
2018-05-12T13:42:18.568Z,9.30
2018-05-12T13:44:44.956Z,9.80
2018-05-12T13:47:11.332Z,8.83
2018-05-12T13:49:39.208Z,8.93
2018-05-12T13:52:05.592Z,9.17
2018-05-12T13:54:31.997Z,8.80
2018-05-12T13:56:58.423Z,9.30
2018-05-12T13:59:24.840Z,9.50
2018-05-12T14:01:51.223Z,9.67
2018-05-12T14:04:17.603Z,8.57
2018-05-12T14:06:44.000Z,9.13
2018-05-12T14:09:10.427Z,9.33
2018-05-12T14:11:36.844Z,9.33
2018-05-12T14:14:03.251Z,9.33
2018-05-12T14:16:29.634Z,9.20
2018-05-12T14:18:56.069Z,10.40
2018-05-12T14:21:22.486Z,9.67
2018-05-12T14:23:48.868Z,9.43
2018-05-12T14:26:15.332Z,10.00
2018-05-12T14:28:42.026Z,8.93
2018-05-12T14:31:08.444Z,9.50
2018-05-12T14:33:34.839Z,9.50
2018-05-12T14:36:01.247Z,9.50
2018-05-12T14:38:27.663Z,10.77
2018-05-12T14:40:54.072Z,10.20
2018-05-12T14:43:20.471Z,11.50
2018-05-12T14:45:46.850Z,11.00
2018-05-12T14:48:13.262Z,10.20
2018-05-12T14:50:39.683Z,11.97
2018-05-12T14:53:06.079Z,10.50
2018-05-12T14:55:33.223Z,9.50
2018-05-12T14:57:59.651Z,10.07
2018-05-12T15:00:26.048Z,9.00
2018-05-12T15:02:52.439Z,9.23
2018-05-12T15:05:19.586Z,9.23
2018-05-12T15:07:46.731Z,9.30
2018-05-12T15:10:13.123Z,8.87
2018-05-12T15:12:39.535Z,8.47
2018-05-12T15:15:05.939Z,8.97
2018-05-12T15:17:33.105Z,10.30
2018-05-12T15:19:59.518Z,8.50
2018-05-12T15:22:26.665Z,10.43
2018-05-12T15:24:53.063Z,9.80
2018-05-12T15:27:19.687Z,9.20
2018-05-12T15:29:46.091Z,9.57
2018-05-12T15:32:12.507Z,8.87
2018-05-12T15:34:39.652Z,9.67
2018-05-12T15:37:06.786Z,9.57
2018-05-12T15:39:33.182Z,9.37
2018-05-12T15:41:59.578Z,9.53
2018-05-12T15:44:26.010Z,9.20
2018-05-12T15:46:53.152Z,10.57
2018-05-12T15:49:20.271Z,9.40
2018-05-12T15:51:46.653Z,9.60
2018-05-12T15:54:13.778Z,10.50
2018-05-12T15:56:40.167Z,11.20
2018-05-12T15:59:06.571Z,11.10
2018-05-12T16:01:32.960Z,9.50
2018-05-12T16:04:00.840Z,9.47
2018-05-12T16:06:27.972Z,10.13
2018-05-12T16:08:55.834Z,9.07
2018-05-12T16:11:22.223Z,10.00
2018-05-12T16:13:48.640Z,9.93
2018-05-12T16:16:15.774Z,9.73
2018-05-12T16:18:42.897Z,8.67
2018-05-12T16:21:09.287Z,10.50
2018-05-12T16:23:35.674Z,14.40
2018-05-12T16:26:02.068Z,10.97
2018-05-12T16:28:28.443Z,9.60
2018-05-12T16:30:54.891Z,10.70
2018-05-12T16:33:22.019Z,11.17
2018-05-12T16:35:49.898Z,12.77
2018-05-12T16:38:17.192Z,14.00
2018-05-12T16:40:43.623Z,13.27
2018-05-12T16:43:10.019Z,12.93
2018-05-12T16:45:36.421Z,12.23
2018-05-12T16:48:02.853Z,12.13
2018-05-12T16:50:29.312Z,13.70
2018-05-12T16:52:55.711Z,13.50
2018-05-12T16:55:22.109Z,12.70
2018-05-12T16:57:49.265Z,13.00
2018-05-12T17:00:15.679Z,16.17
2018-05-12T17:15:34.511Z,7.20
2018-05-12T17:18:00.882Z,7.00
2018-05-12T17:20:27.305Z,7.50
2018-05-12T17:22:53.777Z,6.87
2018-05-12T17:25:20.176Z,7.67
2018-05-12T17:27:46.563Z,7.10
2018-05-12T17:30:12.971Z,7.77
2018-05-12T17:32:39.365Z,7.90
2018-05-12T17:35:05.975Z,6.40
2018-05-12T17:37:33.173Z,7.63
2018-05-12T17:39:59.610Z,6.83
2018-05-12T17:42:26.068Z,7.30
2018-05-12T17:44:52.561Z,7.50
2018-05-12T17:47:18.984Z,7.73
2018-05-12T17:49:46.146Z,7.90
2018-05-12T17:52:12.545Z,7.60
2018-05-12T17:54:38.957Z,7.77
2018-05-12T17:57:05.372Z,7.13
2018-05-12T17:59:31.778Z,9.27
2018-05-12T18:01:58.242Z,15.87
2018-05-12T18:04:24.665Z,12.43
2018-05-12T18:06:51.083Z,10.07
2018-05-12T18:09:17.494Z,9.23
2018-05-12T18:11:44.626Z,8.33
2018-05-12T18:14:11.023Z,8.80
2018-05-12T18:16:37.703Z,9.00
2018-05-12T18:19:04.104Z,10.60
2018-05-12T18:21:30.492Z,11.77
2018-05-12T18:23:56.888Z,10.47
2018-05-12T18:26:23.306Z,14.97
2018-05-12T18:28:49.693Z,14.77
2018-05-12T18:31:16.828Z,12.53
2018-05-12T18:33:43.967Z,13.10
2018-05-12T18:36:10.416Z,9.97
2018-05-12T18:38:37.601Z,12.13
2018-05-12T18:41:04.732Z,11.93
2018-05-12T18:43:31.133Z,10.17
2018-05-12T18:45:58.278Z,9.90
2018-05-12T18:48:26.156Z,11.20
2018-05-12T18:50:53.305Z,9.37
2018-05-12T18:53:20.446Z,10.33
2018-05-12T18:55:46.848Z,10.40
2018-05-12T18:58:13.238Z,11.63
2018-05-12T19:00:40.386Z,11.67
2018-05-12T19:03:07.542Z,10.90
2018-05-12T19:05:33.924Z,10.90
2018-05-12T19:08:00.319Z,12.30
2018-05-12T19:10:26.718Z,12.10
2018-05-12T19:12:53.855Z,12.50
2018-05-12T19:15:21.019Z,13.80
2018-05-12T19:17:48.153Z,12.10
2018-05-12T19:20:15.300Z,12.60
2018-05-12T19:22:41.707Z,12.00
2018-05-12T19:25:08.111Z,11.77
2018-05-12T19:27:34.526Z,12.43
2018-05-12T19:30:01.673Z,13.07
2018-05-12T19:32:28.815Z,11.83
2018-05-12T19:34:55.219Z,13.37
2018-05-12T19:37:21.618Z,13.47
2018-05-12T19:39:48.020Z,11.73
2018-05-12T19:42:15.137Z,12.27
2018-05-12T19:44:41.581Z,12.90
2018-05-12T19:47:09.506Z,12.60
2018-05-12T19:49:35.920Z,13.27
2018-05-12T19:52:02.310Z,12.00
2018-05-12T19:54:28.697Z,12.77
2018-05-12T19:56:55.166Z,13.20
2018-05-12T19:59:21.555Z,12.43
2018-05-12T20:01:48.046Z,12.70
2018-05-12T20:04:14.947Z,12.30
2018-05-12T20:06:41.553Z,12.60
2018-05-12T20:09:08.703Z,13.67
2018-05-12T20:11:35.858Z,13.00
2018-05-12T20:14:02.967Z,12.93
2018-05-12T20:16:29.371Z,14.97
2018-05-12T20:18:55.782Z,14.50
2018-05-12T20:21:22.215Z,13.60
2018-05-12T20:23:49.369Z,14.03
2018-05-12T20:26:15.826Z,12.83
2018-05-12T20:28:42.256Z,14.20
2018-05-12T20:31:08.799Z,12.43
2018-05-12T20:33:36.027Z,12.73
2018-05-12T20:36:02.468Z,12.90
2018-05-12T20:38:28.896Z,12.50
2018-05-12T20:40:55.395Z,13.03
2018-05-12T20:43:21.883Z,13.37
2018-05-12T20:45:48.374Z,13.73
2018-05-12T20:48:15.611Z,12.57
2018-05-12T20:50:42.219Z,11.90
2018-05-12T20:53:09.925Z,12.60
2018-05-12T20:55:36.499Z,11.93
2018-05-12T20:58:03.047Z,12.33
2018-05-12T21:00:30.708Z,12.73
2018-05-12T21:02:59.357Z,12.27
2018-05-12T21:05:26.724Z,12.73
2018-05-12T21:07:54.691Z,13.30
2018-05-12T21:10:21.371Z,12.10
2018-05-12T21:12:48.476Z,12.37
2018-05-12T21:15:14.967Z,11.23
2018-05-12T21:17:43.207Z,11.27
2018-05-12T21:20:10.611Z,11.90
2018-05-12T21:22:37.935Z,12.10
2018-05-12T21:25:05.750Z,12.97
2018-05-12T21:27:34.348Z,11.80
2018-05-12T21:30:03.184Z,14.10
2018-05-12T21:32:32.117Z,12.20
2018-05-12T21:35:00.552Z,12.37
2018-05-12T21:37:30.191Z,13.13
2018-05-12T21:39:57.720Z,12.43
2018-05-12T21:42:25.336Z,13.17
2018-05-12T21:44:53.690Z,13.20
2018-05-12T21:47:20.784Z,11.60
2018-05-12T21:49:49.028Z,13.27
2018-05-12T21:52:18.795Z,12.20
2018-05-12T21:54:46.565Z,11.97
2018-05-12T21:57:14.076Z,13.07
2018-05-12T21:59:42.794Z,12.30
2018-05-12T22:02:12.327Z,12.77
2018-05-12T22:04:40.031Z,13.43
2018-05-12T22:07:06.673Z,11.70
2018-05-12T22:09:34.688Z,13.23
2018-05-12T22:12:02.323Z,12.87
2018-05-12T22:14:30.621Z,12.20
2018-05-12T22:16:59.241Z,13.67
2018-05-12T22:19:26.886Z,12.50
2018-05-12T22:21:54.108Z,13.57
2018-05-12T22:24:23.122Z,13.20
2018-05-12T22:26:51.543Z,14.43
2018-05-12T22:29:21.156Z,13.70
2018-05-12T22:31:48.557Z,13.40
2018-05-12T22:34:15.696Z,13.83
2018-05-12T22:36:42.463Z,13.47
2018-05-12T22:39:10.690Z,13.53
2018-05-12T22:41:38.260Z,13.17
2018-05-12T22:44:07.600Z,14.40
2018-05-12T22:46:35.651Z,14.37
2018-05-12T22:49:03.124Z,13.97
2018-05-12T22:51:29.723Z,14.83
2018-05-12T22:53:57.876Z,14.80
2018-05-12T22:56:28.057Z,14.70
2018-05-12T22:58:54.519Z,16.73
2018-05-12T23:01:21.846Z,14.90
2018-05-12T23:03:49.002Z,15.60
2018-05-12T23:06:15.411Z,15.17
2018-05-12T23:08:41.807Z,17.00
2018-05-12T23:11:08.999Z,16.30
2018-05-12T23:13:35.456Z,16.43
2018-05-12T23:16:01.858Z,17.23
2018-05-12T23:18:28.287Z,15.60
2018-05-12T23:20:54.696Z,16.67
2018-05-12T23:23:21.159Z,17.90
2018-05-12T23:25:49.563Z,17.40
2018-05-12T23:28:18.385Z,17.80
2018-05-12T23:30:45.594Z,18.37
2018-05-12T23:33:13.315Z,18.00
2018-05-12T23:35:39.701Z,19.13
2018-05-12T23:38:06.723Z,19.10
2018-05-12T23:40:33.207Z,18.00
2018-05-12T23:43:01.099Z,20.53
2018-05-12T23:45:27.528Z,18.90
2018-05-12T23:47:55.178Z,18.63
2018-05-12T23:50:21.619Z,18.87
2018-05-12T23:52:48.990Z,17.47
2018-05-12T23:55:16.889Z,17.87
2018-05-12T23:57:43.884Z,17.47
